createdAt,value
2018-04-24T00:00:55.167Z,972.91
2018-04-24T00:01:55.843Z,972.91
2018-04-24T00:02:56.520Z,972.87
2018-04-24T00:03:57.198Z,972.91
2018-04-24T00:04:57.869Z,972.88
2018-04-24T00:05:58.545Z,972.94
2018-04-24T00:06:59.218Z,972.96
2018-04-24T00:07:59.890Z,972.97
2018-04-24T00:09:00.569Z,972.96
2018-04-24T00:10:01.242Z,972.95
2018-04-24T00:11:01.912Z,972.96
2018-04-24T00:12:02.584Z,972.95
2018-04-24T00:13:03.258Z,972.97
2018-04-24T00:14:03.944Z,972.94
2018-04-24T00:15:04.619Z,972.98
2018-04-24T00:16:05.290Z,972.98
2018-04-24T00:17:05.973Z,972.91
2018-04-24T00:18:06.636Z,972.95
2018-04-24T00:19:07.310Z,972.93
2018-04-24T00:20:07.988Z,972.99
2018-04-24T00:21:08.659Z,972.98
2018-04-24T00:22:09.338Z,973.03
2018-04-24T00:23:10.005Z,973.03
2018-04-24T00:24:10.678Z,972.98
2018-04-24T00:25:11.352Z,972.99
2018-04-24T00:26:12.105Z,972.99
2018-04-24T00:27:12.695Z,973.02
2018-04-24T00:28:13.364Z,973.04
2018-04-24T00:29:14.041Z,973.03
2018-04-24T00:30:14.711Z,973.07
2018-04-24T00:31:15.383Z,973.04
2018-04-24T00:32:16.055Z,973.01
2018-04-24T00:33:16.726Z,973.09
2018-04-24T00:34:17.475Z,973.04
2018-04-24T00:35:18.077Z,973.04
2018-04-24T00:36:18.757Z,973.02
2018-04-24T00:37:19.434Z,973.01
2018-04-24T00:38:20.109Z,973.08
2018-04-24T00:39:20.785Z,973.08
2018-04-24T00:40:21.457Z,973.13
2018-04-24T00:41:22.129Z,973.19
2018-04-24T00:42:22.810Z,973.14
2018-04-24T00:43:23.493Z,973.13
2018-04-24T00:44:24.168Z,973.16
2018-04-24T00:45:24.847Z,973.20
2018-04-24T00:46:25.516Z,973.19
2018-04-24T00:47:26.190Z,973.19
2018-04-24T00:48:26.868Z,973.22
2018-04-24T00:49:27.538Z,973.20
2018-04-24T00:50:28.214Z,973.19
2018-04-24T00:51:28.888Z,973.18
2018-04-24T00:52:29.559Z,973.19
2018-04-24T00:53:30.232Z,973.21
2018-04-24T00:54:30.907Z,973.22
2018-04-24T00:55:31.582Z,973.23
2018-04-24T00:56:32.247Z,973.27
2018-04-24T00:57:32.926Z,973.29
2018-04-24T00:58:33.611Z,973.28
2018-04-24T00:59:34.286Z,973.29
2018-04-24T01:00:34.959Z,973.30
2018-04-24T01:01:35.637Z,973.31
2018-04-24T01:02:36.319Z,973.34
2018-04-24T01:03:36.992Z,973.29
2018-04-24T01:04:37.663Z,973.32
2018-04-24T01:05:38.336Z,973.32
2018-04-24T01:06:39.041Z,973.29
2018-04-24T01:07:39.684Z,973.27
2018-04-24T01:08:40.359Z,973.31
2018-04-24T01:09:41.032Z,973.32
2018-04-24T01:10:41.710Z,973.35
2018-04-24T01:11:42.383Z,973.37
2018-04-24T01:12:43.060Z,973.37
2018-04-24T01:13:43.729Z,973.32
2018-04-24T01:14:44.399Z,973.33
2018-04-24T01:15:45.075Z,973.32
2018-04-24T01:16:45.757Z,973.35
2018-04-24T01:17:46.418Z,973.35
2018-04-24T01:18:47.089Z,973.37
2018-04-24T01:19:47.764Z,973.34
2018-04-24T01:20:48.442Z,973.37
2018-04-24T01:21:49.116Z,973.34
2018-04-24T01:22:49.790Z,973.35
2018-04-24T01:23:50.470Z,973.36
2018-04-24T01:24:51.150Z,973.37
2018-04-24T01:25:51.827Z,973.39
2018-04-24T01:26:52.501Z,973.38
2018-04-24T01:27:53.177Z,973.35
2018-04-24T01:28:53.854Z,973.34
2018-04-24T01:29:54.537Z,973.36
2018-04-24T01:30:55.216Z,973.39
2018-04-24T01:31:55.887Z,973.35
2018-04-24T01:32:56.558Z,973.39
2018-04-24T01:33:57.243Z,973.40
2018-04-24T01:34:57.917Z,973.41
2018-04-24T01:35:58.591Z,973.39
2018-04-24T01:36:59.269Z,973.44
2018-04-24T01:37:59.940Z,973.38
2018-04-24T01:39:00.611Z,973.39
2018-04-24T01:40:01.284Z,973.38
2018-04-24T01:41:01.964Z,973.38
2018-04-24T01:42:02.636Z,973.39
2018-04-24T01:43:03.313Z,973.39
2018-04-24T01:44:03.981Z,973.40
2018-04-24T01:45:04.656Z,973.39
2018-04-24T01:46:05.328Z,973.42
2018-04-24T01:47:06.000Z,973.39
2018-04-24T01:48:06.676Z,973.46
2018-04-24T01:49:07.351Z,973.45
2018-04-24T01:50:08.031Z,973.49
2018-04-24T01:51:08.705Z,973.47
2018-04-24T01:52:09.382Z,973.46
2018-04-24T01:53:10.051Z,973.50
2018-04-24T01:54:10.733Z,973.49
2018-04-24T01:55:11.403Z,973.53
2018-04-24T01:56:12.076Z,973.51
2018-04-24T01:57:12.752Z,973.51
2018-04-24T01:58:13.430Z,973.55
2018-04-24T01:59:14.101Z,973.57
2018-04-24T02:00:14.781Z,973.54
2018-04-24T02:01:15.452Z,973.54
2018-04-24T02:02:16.123Z,973.58
2018-04-24T02:03:16.801Z,973.53
2018-04-24T02:04:17.477Z,973.54
2018-04-24T02:05:18.150Z,973.58
2018-04-24T02:06:18.825Z,973.56
2018-04-24T02:07:19.498Z,973.54
2018-04-24T02:08:20.174Z,973.52
2018-04-24T02:09:20.848Z,973.57
2018-04-24T02:10:21.520Z,973.59
2018-04-24T02:11:22.189Z,973.60
2018-04-24T02:12:22.865Z,973.60
2018-04-24T02:13:23.537Z,973.60
2018-04-24T02:14:24.210Z,973.60
2018-04-24T02:15:24.879Z,973.62
2018-04-24T02:16:25.553Z,973.68
2018-04-24T02:17:26.225Z,973.69
2018-04-24T02:18:26.900Z,973.68
2018-04-24T02:19:27.572Z,973.71
2018-04-24T02:20:28.246Z,973.62
2018-04-24T02:21:28.922Z,973.62
2018-04-24T02:22:29.592Z,973.63
2018-04-24T02:23:30.275Z,973.65
2018-04-24T02:24:30.947Z,973.66
2018-04-24T02:25:31.617Z,973.68
2018-04-24T02:26:32.290Z,973.68
2018-04-24T02:27:32.965Z,973.71
2018-04-24T02:28:33.638Z,973.66
2018-04-24T02:29:34.314Z,973.61
2018-04-24T02:30:34.990Z,973.60
2018-04-24T02:31:35.663Z,973.61
2018-04-24T02:32:36.335Z,973.61
2018-04-24T02:33:37.018Z,973.57
2018-04-24T02:34:37.685Z,973.62
2018-04-24T02:35:38.357Z,973.61
2018-04-24T02:36:39.031Z,973.63
2018-04-24T02:37:39.705Z,973.60
2018-04-24T02:38:40.375Z,973.61
2018-04-24T02:39:41.054Z,973.58
2018-04-24T02:40:41.736Z,973.62
2018-04-24T02:41:42.410Z,973.62
2018-04-24T02:42:43.084Z,973.66
2018-04-24T02:43:43.756Z,973.64
2018-04-24T02:44:44.444Z,973.68
2018-04-24T02:45:45.114Z,973.67
2018-04-24T02:46:45.787Z,973.66
2018-04-24T02:47:46.468Z,973.67
2018-04-24T02:48:47.144Z,973.70
2018-04-24T02:49:47.817Z,973.71
2018-04-24T02:50:48.493Z,973.72
2018-04-24T02:51:49.161Z,973.65
2018-04-24T02:52:49.835Z,973.68
2018-04-24T02:53:50.518Z,973.68
2018-04-24T02:54:51.192Z,973.63
2018-04-24T02:55:51.868Z,973.61
2018-04-24T02:56:52.542Z,973.65
2018-04-24T02:57:53.219Z,973.66
2018-04-24T02:58:53.899Z,973.59
2018-04-24T02:59:54.568Z,973.64
2018-04-24T03:00:55.245Z,973.62
2018-04-24T03:01:55.917Z,973.64
2018-04-24T03:02:56.590Z,973.68
2018-04-24T03:03:57.261Z,973.68
2018-04-24T03:04:57.940Z,973.61
2018-04-24T03:05:58.613Z,973.69
2018-04-24T03:06:59.286Z,973.70
2018-04-24T03:07:59.976Z,973.72
2018-04-24T03:09:00.632Z,973.73
2018-04-24T03:10:01.302Z,973.70
2018-04-24T03:11:01.983Z,973.69
2018-04-24T03:12:02.657Z,973.63
2018-04-24T03:13:03.329Z,973.63
2018-04-24T03:14:04.000Z,973.66
2018-04-24T03:15:04.673Z,973.64
2018-04-24T03:16:05.347Z,973.64
2018-04-24T03:17:06.018Z,973.62
2018-04-24T03:18:06.699Z,973.59
2018-04-24T03:19:07.371Z,973.60
2018-04-24T03:20:08.044Z,973.59
2018-04-24T03:21:08.714Z,973.59
2018-04-24T03:22:09.389Z,973.55
2018-04-24T03:23:10.067Z,973.57
2018-04-24T03:24:10.748Z,973.55
2018-04-24T03:25:11.423Z,973.54
2018-04-24T03:26:12.093Z,973.54
2018-04-24T03:27:12.765Z,973.53
2018-04-24T03:28:13.434Z,973.52
2018-04-24T03:29:14.108Z,973.45
2018-04-24T03:30:14.783Z,973.52
2018-04-24T03:31:15.452Z,973.48
2018-04-24T03:32:16.122Z,973.47
2018-04-24T03:33:16.802Z,973.46
2018-04-24T03:34:17.473Z,973.48
2018-04-24T03:35:18.159Z,973.47
2018-04-24T03:36:18.839Z,973.44
2018-04-24T03:37:19.510Z,973.49
2018-04-24T03:38:20.176Z,973.50
2018-04-24T03:39:20.850Z,973.53
2018-04-24T03:40:21.521Z,973.52
2018-04-24T03:41:22.195Z,973.59
2018-04-24T03:42:22.864Z,973.59
2018-04-24T03:43:23.536Z,973.57
2018-04-24T03:44:24.204Z,973.58
2018-04-24T03:45:24.889Z,973.58
2018-04-24T03:46:25.575Z,973.56
2018-04-24T03:47:26.245Z,973.57
2018-04-24T03:48:26.921Z,973.57
2018-04-24T03:49:27.593Z,973.53
2018-04-24T03:50:28.268Z,973.57
2018-04-24T03:51:28.942Z,973.52
2018-04-24T03:52:29.626Z,973.55
2018-04-24T03:53:30.297Z,973.54
2018-04-24T03:54:30.969Z,973.55
2018-04-24T03:55:31.640Z,973.53
2018-04-24T03:56:32.314Z,973.56
2018-04-24T03:57:32.987Z,973.54
2018-04-24T03:58:33.661Z,973.62
2018-04-24T03:59:34.329Z,973.55
2018-04-24T04:00:35.002Z,973.61
2018-04-24T04:01:35.678Z,973.60
2018-04-24T04:02:36.352Z,973.65
2018-04-24T04:03:37.026Z,973.64
2018-04-24T04:04:37.698Z,973.65
2018-04-24T04:05:38.374Z,973.70
2018-04-24T04:06:39.041Z,973.67
2018-04-24T04:07:39.749Z,973.72
2018-04-24T04:08:40.399Z,973.70
2018-04-24T04:09:41.073Z,973.70
2018-04-24T04:10:41.739Z,973.69
2018-04-24T04:11:42.416Z,973.74
2018-04-24T04:12:43.093Z,973.69
2018-04-24T04:13:43.766Z,973.69
2018-04-24T04:14:44.438Z,973.72
2018-04-24T04:15:45.123Z,973.71
2018-04-24T04:16:45.789Z,973.73
2018-04-24T04:17:46.463Z,973.75
2018-04-24T04:18:47.138Z,973.71
2018-04-24T04:19:47.812Z,973.72
2018-04-24T04:20:48.488Z,973.71
2018-04-24T04:21:49.167Z,973.71
2018-04-24T04:22:49.840Z,973.67
2018-04-24T04:23:50.516Z,973.71
2018-04-24T04:24:51.192Z,973.70
2018-04-24T04:25:51.873Z,973.68
2018-04-24T04:26:52.559Z,973.71
2018-04-24T04:27:53.227Z,973.71
2018-04-24T04:28:53.904Z,973.73
2018-04-24T04:29:54.576Z,973.75
2018-04-24T04:30:55.256Z,973.73
2018-04-24T04:31:55.932Z,973.68
2018-04-24T04:32:56.665Z,973.72
2018-04-24T04:33:57.284Z,973.70
2018-04-24T04:34:57.962Z,973.68
2018-04-24T04:35:58.642Z,973.68
2018-04-24T04:36:59.326Z,973.68
2018-04-24T04:37:59.991Z,973.66
2018-04-24T04:39:00.664Z,973.66
2018-04-24T04:40:01.339Z,973.68
2018-04-24T04:41:02.011Z,973.65
2018-04-24T04:42:02.689Z,973.64
2018-04-24T04:43:03.367Z,973.70
2018-04-24T04:44:04.042Z,973.68
2018-04-24T04:45:04.727Z,973.71
2018-04-24T04:46:05.401Z,973.70
2018-04-24T04:47:06.090Z,973.69
2018-04-24T04:48:06.761Z,973.70
2018-04-24T04:49:07.437Z,973.65
2018-04-24T04:50:08.114Z,973.70
2018-04-24T04:51:08.790Z,973.68
2018-04-24T04:52:09.474Z,973.71
2018-04-24T04:53:10.142Z,973.72
2018-04-24T04:54:10.816Z,973.75
2018-04-24T04:55:11.490Z,973.72
2018-04-24T04:56:12.266Z,973.72
2018-04-24T04:57:12.853Z,973.71
2018-04-24T04:58:13.525Z,973.70
2018-04-24T04:59:14.203Z,973.69
2018-04-24T05:00:14.884Z,973.71
2018-04-24T05:01:15.559Z,973.68
2018-04-24T05:02:16.235Z,973.73
2018-04-24T05:03:16.910Z,973.75
2018-04-24T05:04:17.588Z,973.78
2018-04-24T05:05:18.329Z,973.77
2018-04-24T05:06:18.932Z,973.75
2018-04-24T05:07:19.605Z,973.77
2018-04-24T05:08:20.288Z,973.74
2018-04-24T05:09:20.967Z,973.79
2018-04-24T05:10:21.644Z,973.75
2018-04-24T05:11:22.321Z,973.80
2018-04-24T05:12:22.997Z,973.74
2018-04-24T05:13:23.672Z,973.79
2018-04-24T05:14:24.346Z,973.82
2018-04-24T05:15:25.019Z,973.82
2018-04-24T05:16:25.709Z,973.80
2018-04-24T05:17:26.389Z,973.81
2018-04-24T05:18:27.071Z,973.83
2018-04-24T05:19:27.752Z,973.84
2018-04-24T05:20:28.443Z,973.81
2018-04-24T05:21:29.111Z,973.86
2018-04-24T05:22:29.789Z,973.85
2018-04-24T05:23:30.464Z,973.88
2018-04-24T05:24:31.143Z,973.88
2018-04-24T05:25:31.818Z,973.86
2018-04-24T05:26:32.527Z,973.83
2018-04-24T05:27:33.168Z,973.81
2018-04-24T05:28:33.846Z,973.83
2018-04-24T05:29:34.539Z,973.85
2018-04-24T05:30:35.198Z,973.89
2018-04-24T05:31:35.876Z,973.87
2018-04-24T05:32:36.564Z,973.91
2018-04-24T05:33:37.243Z,973.90
2018-04-24T05:34:37.922Z,973.87
2018-04-24T05:35:38.596Z,973.89
2018-04-24T05:36:39.271Z,973.91
2018-04-24T05:37:39.947Z,973.91
2018-04-24T05:38:40.624Z,973.86
2018-04-24T05:39:41.301Z,973.90
2018-04-24T05:40:41.980Z,973.89
2018-04-24T05:41:42.662Z,973.93
2018-04-24T05:42:43.347Z,973.93
2018-04-24T05:43:44.023Z,973.90
2018-04-24T05:44:44.702Z,973.87
2018-04-24T05:45:45.378Z,973.95
2018-04-24T05:46:46.055Z,973.92
2018-04-24T05:47:46.735Z,973.94
2018-04-24T05:48:47.409Z,973.97
2018-04-24T05:49:48.084Z,974.00
2018-04-24T05:50:48.768Z,973.99
2018-04-24T05:51:49.442Z,974.02
2018-04-24T05:52:50.125Z,974.02
2018-04-24T05:53:50.803Z,974.08
2018-04-24T05:54:51.481Z,974.06
2018-04-24T05:55:52.156Z,974.11
2018-04-24T05:56:52.832Z,974.11
2018-04-24T05:57:53.529Z,974.09
2018-04-24T05:58:54.187Z,974.10
2018-04-24T05:59:54.871Z,974.09
2018-04-24T06:00:55.545Z,974.17
2018-04-24T06:01:56.235Z,974.09
2018-04-24T06:02:56.915Z,974.14
2018-04-24T06:03:57.592Z,974.17
2018-04-24T06:04:58.268Z,974.20
2018-04-24T06:05:58.944Z,974.21
2018-04-24T06:06:59.622Z,974.21
2018-04-24T06:08:00.295Z,974.21
2018-04-24T06:09:00.990Z,974.23
2018-04-24T06:10:01.660Z,974.22
2018-04-24T06:11:02.343Z,974.23
2018-04-24T06:12:03.017Z,974.23
2018-04-24T06:13:03.694Z,974.25
2018-04-24T06:14:04.374Z,974.29
2018-04-24T06:15:05.101Z,974.29
2018-04-24T06:16:05.731Z,974.33
2018-04-24T06:17:06.411Z,974.34
2018-04-24T06:18:07.085Z,974.30
2018-04-24T06:19:07.759Z,974.23
2018-04-24T06:20:08.438Z,974.26
2018-04-24T06:21:09.075Z,974.28
2018-04-24T06:22:09.801Z,974.28
2018-04-24T06:23:10.488Z,974.25
2018-04-24T06:24:11.165Z,974.25
2018-04-24T06:25:11.843Z,974.23
2018-04-24T06:26:12.520Z,974.24
2018-04-24T06:27:13.202Z,974.22
2018-04-24T06:28:13.884Z,974.25
2018-04-24T06:29:14.559Z,974.23
2018-04-24T06:30:15.252Z,974.24
2018-04-24T06:31:15.932Z,974.28
2018-04-24T06:32:16.609Z,974.22
2018-04-24T06:33:17.289Z,974.26
2018-04-24T06:34:17.966Z,974.29
2018-04-24T06:35:18.648Z,974.27
2018-04-24T06:36:19.331Z,974.27
2018-04-24T06:37:20.018Z,974.25
2018-04-24T06:38:20.692Z,974.24
2018-04-24T06:39:21.372Z,974.31
2018-04-24T06:40:22.050Z,974.35
2018-04-24T06:41:22.728Z,974.29
2018-04-24T06:42:23.434Z,974.33
2018-04-24T06:43:24.088Z,974.32
2018-04-24T06:44:24.764Z,974.25
2018-04-24T06:45:25.457Z,974.22
2018-04-24T06:46:26.135Z,974.21
2018-04-24T06:47:26.814Z,974.23
2018-04-24T06:48:27.500Z,974.19
2018-04-24T06:49:28.168Z,974.25
2018-04-24T06:50:28.847Z,974.20
2018-04-24T06:51:29.532Z,974.24
2018-04-24T06:52:30.214Z,974.22
2018-04-24T06:53:30.892Z,974.18
2018-04-24T06:54:31.578Z,974.20
2018-04-24T06:55:32.257Z,974.22
2018-04-24T06:56:32.937Z,974.20
2018-04-24T06:57:33.615Z,974.22
2018-04-24T06:58:34.291Z,974.26
2018-04-24T06:59:34.969Z,974.29
2018-04-24T07:00:35.702Z,974.31
2018-04-24T07:01:36.322Z,974.30
2018-04-24T07:02:37.005Z,974.24
2018-04-24T07:03:37.680Z,974.27
2018-04-24T07:04:38.363Z,974.26
2018-04-24T07:05:39.040Z,974.33
2018-04-24T07:06:39.717Z,974.30
2018-04-24T07:07:40.401Z,974.28
2018-04-24T07:08:41.081Z,974.26
2018-04-24T07:09:41.762Z,974.28
2018-04-24T07:10:42.441Z,974.24
2018-04-24T07:11:43.111Z,974.25
2018-04-24T07:12:43.796Z,974.25
2018-04-24T07:13:44.471Z,974.23
2018-04-24T07:14:45.149Z,974.28
2018-04-24T07:15:45.835Z,974.22
2018-04-24T07:16:46.531Z,974.22
2018-04-24T07:17:47.205Z,974.20
2018-04-24T07:18:47.879Z,974.14
2018-04-24T07:19:48.559Z,974.13
2018-04-24T07:20:49.236Z,974.15
2018-04-24T07:21:49.916Z,974.10
2018-04-24T07:22:50.593Z,974.17
2018-04-24T07:23:51.271Z,974.11
2018-04-24T07:24:51.955Z,974.12
2018-04-24T07:25:52.628Z,974.12
2018-04-24T07:26:53.309Z,974.15
2018-04-24T07:27:53.987Z,974.13
2018-04-24T07:28:54.673Z,974.13
2018-04-24T07:29:55.351Z,974.18
2018-04-24T07:30:56.029Z,974.15
2018-04-24T07:31:56.708Z,974.14
2018-04-24T07:32:57.446Z,974.10
2018-04-24T07:33:58.069Z,974.15
2018-04-24T07:34:58.751Z,974.14
2018-04-24T07:35:59.431Z,974.11
2018-04-24T07:37:00.111Z,974.08
2018-04-24T07:38:00.804Z,974.07
2018-04-24T07:39:01.472Z,974.06
2018-04-24T07:40:02.150Z,974.07
2018-04-24T07:41:02.922Z,974.13
2018-04-24T07:42:03.518Z,974.09
2018-04-24T07:43:04.195Z,974.05
2018-04-24T07:44:04.878Z,974.04
2018-04-24T07:45:05.555Z,974.01
2018-04-24T07:46:06.232Z,974.04
2018-04-24T07:47:06.913Z,973.97
2018-04-24T07:48:07.595Z,973.97
2018-04-24T07:49:08.267Z,974.01
2018-04-24T07:50:08.952Z,974.00
2018-04-24T07:51:09.632Z,973.98
2018-04-24T07:52:10.314Z,973.97
2018-04-24T07:53:10.992Z,973.95
2018-04-24T07:54:11.671Z,974.00
2018-04-24T07:55:12.352Z,973.94
2018-04-24T07:56:13.027Z,973.93
2018-04-24T07:57:13.705Z,973.96
2018-04-24T07:58:14.463Z,973.88
2018-04-24T07:59:15.076Z,973.96
2018-04-24T08:00:15.752Z,973.97
2018-04-24T08:01:16.439Z,973.94
2018-04-24T08:02:17.115Z,973.86
2018-04-24T08:03:17.794Z,973.88
2018-04-24T08:04:18.476Z,973.84
2018-04-24T08:05:19.154Z,973.91
2018-04-24T08:06:19.831Z,973.81
2018-04-24T08:07:20.516Z,973.84
2018-04-24T08:08:21.194Z,973.82
2018-04-24T08:09:21.879Z,973.85
2018-04-24T08:10:22.553Z,973.82
2018-04-24T08:11:23.237Z,973.81
2018-04-24T08:12:23.916Z,973.81
2018-04-24T08:13:24.597Z,973.99
2018-04-24T08:14:25.282Z,973.80
2018-04-24T08:15:25.963Z,973.93
2018-04-24T08:16:26.670Z,973.82
2018-04-24T08:17:27.319Z,973.81
2018-04-24T08:18:28.002Z,973.81
2018-04-24T08:19:28.679Z,973.79
2018-04-24T08:20:29.359Z,973.77
2018-04-24T08:21:30.041Z,973.83
2018-04-24T08:22:30.721Z,973.85
2018-04-24T08:23:31.397Z,973.80
2018-04-24T08:24:32.079Z,973.81
2018-04-24T08:25:32.756Z,973.75
2018-04-24T08:26:33.439Z,973.74
2018-04-24T08:27:34.120Z,973.74
2018-04-24T08:28:34.798Z,973.79
2018-04-24T08:29:35.474Z,973.77
2018-04-24T08:30:36.151Z,973.77
2018-04-24T08:31:36.829Z,973.86
2018-04-24T08:32:37.510Z,973.82
2018-04-24T08:33:38.261Z,973.83
2018-04-24T08:34:38.870Z,973.81
2018-04-24T08:35:39.548Z,973.94
2018-04-24T08:36:40.238Z,973.78
2018-04-24T08:37:40.916Z,973.78
2018-04-24T08:38:41.591Z,973.76
2018-04-24T08:39:42.270Z,973.82
2018-04-24T08:40:42.967Z,973.75
2018-04-24T08:41:43.643Z,973.78
2018-04-24T08:42:44.319Z,973.78
2018-04-24T08:43:45.003Z,973.77
2018-04-24T08:44:45.685Z,973.77
2018-04-24T08:45:46.367Z,973.79
2018-04-24T08:46:47.048Z,973.76
2018-04-24T08:47:47.745Z,973.81
2018-04-24T08:48:48.414Z,973.81
2018-04-24T08:49:49.096Z,973.78
2018-04-24T08:50:49.777Z,973.88
2018-04-24T08:51:50.457Z,973.82
2018-04-24T08:52:51.147Z,973.82
2018-04-24T08:53:51.817Z,973.80
2018-04-24T08:54:52.503Z,973.81
2018-04-24T08:55:53.195Z,973.83
2018-04-24T08:56:53.870Z,973.80
2018-04-24T08:57:54.549Z,973.81
2018-04-24T08:58:55.233Z,973.75
2018-04-24T08:59:55.912Z,973.76
2018-04-24T09:00:56.590Z,973.82
2018-04-24T09:01:57.356Z,973.72
2018-04-24T09:02:57.953Z,973.69
2018-04-24T09:03:58.639Z,973.70
2018-04-24T09:04:59.316Z,973.68
2018-04-24T09:06:00.020Z,973.72
2018-04-24T09:07:00.701Z,973.65
2018-04-24T09:08:01.381Z,973.64
2018-04-24T09:09:02.055Z,973.62
2018-04-24T09:10:02.736Z,973.65
2018-04-24T09:11:03.412Z,973.71
2018-04-24T09:12:04.097Z,973.66
2018-04-24T09:13:04.777Z,973.69
2018-04-24T09:14:05.528Z,973.63
2018-04-24T09:15:06.141Z,973.70
2018-04-24T09:16:06.823Z,973.64
2018-04-24T09:17:07.503Z,973.65
2018-04-24T09:18:08.189Z,973.64
2018-04-24T09:19:08.867Z,973.56
2018-04-24T09:20:09.546Z,973.55
2018-04-24T09:21:10.226Z,973.56
2018-04-24T09:22:10.921Z,973.47
2018-04-24T09:23:11.600Z,973.63
2018-04-24T09:24:12.281Z,973.45
2018-04-24T09:25:12.958Z,973.64
2018-04-24T09:26:13.639Z,973.51
2018-04-24T09:27:14.414Z,973.55
2018-04-24T09:28:15.007Z,973.51
2018-04-24T09:29:15.689Z,973.42
2018-04-24T09:30:16.370Z,973.48
2018-04-24T09:31:17.055Z,973.55
2018-04-24T09:32:17.735Z,973.55
2018-04-24T09:33:18.416Z,973.45
2018-04-24T09:34:19.103Z,973.43
2018-04-24T09:35:19.782Z,973.46
2018-04-24T09:36:20.464Z,973.43
2018-04-24T09:37:21.112Z,973.55
2018-04-24T09:38:21.815Z,973.60
2018-04-24T09:39:22.501Z,973.45
2018-04-24T09:40:23.179Z,973.45
2018-04-24T09:41:23.860Z,973.46
2018-04-24T09:42:24.542Z,973.42
2018-04-24T09:43:25.222Z,973.54
2018-04-24T09:44:25.900Z,973.56
2018-04-24T09:45:26.578Z,973.49
2018-04-24T09:46:27.260Z,973.48
2018-04-24T09:47:27.944Z,973.47
2018-04-24T09:48:28.622Z,973.47
2018-04-24T09:49:29.395Z,973.51
2018-04-24T09:50:29.988Z,973.45
2018-04-24T09:51:30.668Z,973.43
2018-04-24T09:52:31.346Z,973.37
2018-04-24T09:53:32.023Z,973.37
2018-04-24T09:54:32.703Z,973.39
2018-04-24T09:55:33.383Z,973.33
2018-04-24T09:56:34.064Z,973.47
2018-04-24T09:57:34.742Z,973.35
2018-04-24T09:58:35.422Z,973.40
2018-04-24T09:59:36.109Z,973.28
2018-04-24T10:00:36.790Z,973.30
2018-04-24T10:01:37.470Z,973.43
2018-04-24T10:02:38.154Z,973.29
2018-04-24T10:03:38.842Z,973.40
2018-04-24T10:04:39.522Z,973.29
2018-04-24T10:05:40.219Z,973.35
2018-04-24T10:06:40.894Z,973.29
2018-04-24T10:07:41.626Z,973.35
2018-04-24T10:08:42.261Z,973.29
2018-04-24T10:09:42.943Z,973.23
2018-04-24T10:10:43.620Z,973.24
2018-04-24T10:11:44.300Z,973.23
2018-04-24T10:12:44.980Z,973.33
2018-04-24T10:13:45.702Z,973.34
2018-04-24T10:14:46.350Z,973.24
2018-04-24T10:15:47.032Z,973.30
2018-04-24T10:16:47.709Z,973.17
2018-04-24T10:17:48.392Z,973.20
2018-04-24T10:18:49.074Z,973.15
2018-04-24T10:19:50.058Z,973.20
2018-04-24T10:20:50.736Z,973.14
2018-04-24T10:21:51.417Z,973.12
2018-04-24T10:22:52.100Z,973.08
2018-04-24T10:23:52.781Z,973.17
2018-04-24T10:24:53.466Z,973.17
2018-04-24T10:25:54.147Z,973.35
2018-04-24T10:26:54.844Z,973.11
2018-04-24T10:27:55.522Z,973.18
2018-04-24T10:28:56.206Z,973.12
2018-04-24T10:29:56.890Z,973.12
2018-04-24T10:30:57.570Z,973.08
2018-04-24T10:31:58.250Z,973.03
2018-04-24T10:32:58.928Z,973.07
2018-04-24T10:33:59.612Z,973.03
2018-04-24T10:35:00.299Z,973.03
2018-04-24T10:36:00.980Z,973.03
2018-04-24T10:37:01.659Z,973.00
2018-04-24T10:38:02.344Z,973.00
2018-04-24T10:39:03.031Z,973.04
2018-04-24T10:40:03.714Z,972.96
2018-04-24T10:41:04.396Z,973.00
2018-04-24T10:42:05.083Z,972.94
2018-04-24T10:43:05.767Z,972.91
2018-04-24T10:44:06.456Z,972.90
2018-04-24T10:45:07.144Z,972.93
2018-04-24T10:46:07.823Z,972.96
2018-04-24T10:47:08.503Z,972.93
2018-04-24T10:48:09.222Z,972.87
2018-04-24T10:49:09.871Z,972.95
2018-04-24T10:50:10.550Z,972.80
2018-04-24T10:51:11.232Z,972.93
2018-04-24T10:52:11.916Z,972.82
2018-04-24T10:53:12.599Z,972.80
2018-04-24T10:54:13.280Z,972.83
2018-04-24T10:55:13.960Z,972.80
2018-04-24T10:56:14.648Z,972.82
2018-04-24T10:57:15.335Z,972.84
2018-04-24T10:58:16.018Z,972.81
2018-04-24T10:59:16.758Z,972.86
2018-04-24T11:00:17.380Z,972.82
2018-04-24T11:01:18.077Z,972.81
2018-04-24T11:02:18.754Z,972.80
2018-04-24T11:03:19.436Z,972.76
2018-04-24T11:04:20.117Z,972.75
2018-04-24T11:05:20.804Z,972.78
2018-04-24T11:06:21.485Z,972.77
2018-04-24T11:07:22.165Z,972.72
2018-04-24T11:08:22.843Z,972.72
2018-04-24T11:09:23.529Z,972.73
2018-04-24T11:10:24.215Z,972.70
2018-04-24T11:11:24.903Z,972.72
2018-04-24T11:12:25.583Z,972.70
2018-04-24T11:13:26.262Z,972.67
2018-04-24T11:14:26.949Z,972.63
2018-04-24T11:15:27.642Z,972.68
2018-04-24T11:16:28.317Z,972.66
2018-04-24T11:17:28.998Z,972.68
2018-04-24T11:18:29.674Z,972.70
2018-04-24T11:19:30.360Z,972.76
2018-04-24T11:20:31.042Z,972.67
2018-04-24T11:21:31.722Z,972.62
2018-04-24T11:22:32.418Z,972.61
2018-04-24T11:23:33.096Z,972.60
2018-04-24T11:24:33.785Z,972.60
2018-04-24T11:25:34.465Z,972.62
2018-04-24T11:26:35.150Z,972.62
2018-04-24T11:27:35.841Z,972.60
2018-04-24T11:28:36.526Z,972.59
2018-04-24T11:29:37.209Z,972.61
2018-04-24T11:30:37.896Z,972.58
2018-04-24T11:31:38.581Z,972.59
2018-04-24T11:32:39.269Z,972.54
2018-04-24T11:33:39.946Z,972.52
2018-04-24T11:34:40.631Z,972.47
2018-04-24T11:35:41.316Z,972.48
2018-04-24T11:36:42.037Z,972.50
2018-04-24T11:37:42.690Z,972.53
2018-04-24T11:38:43.375Z,972.53
2018-04-24T11:39:44.067Z,972.53
2018-04-24T11:40:44.748Z,972.52
2018-04-24T11:41:45.432Z,972.49
2018-04-24T11:42:46.116Z,972.46
2018-04-24T11:43:46.845Z,972.55
2018-04-24T11:44:47.504Z,972.47
2018-04-24T11:45:48.191Z,972.45
2018-04-24T11:46:48.874Z,972.45
2018-04-24T11:47:49.559Z,972.51
2018-04-24T11:48:50.238Z,972.50
2018-04-24T11:49:50.917Z,972.46
2018-04-24T11:50:51.596Z,972.43
2018-04-24T11:51:52.280Z,972.42
2018-04-24T11:52:52.960Z,972.36
2018-04-24T11:53:53.643Z,972.39
2018-04-24T11:54:54.328Z,972.45
2018-04-24T11:55:55.007Z,972.39
2018-04-24T11:56:55.696Z,972.36
2018-04-24T11:57:56.381Z,972.36
2018-04-24T11:58:57.060Z,972.34
2018-04-24T11:59:57.748Z,972.34
2018-04-24T12:00:58.428Z,972.34
2018-04-24T12:01:59.111Z,972.36
2018-04-24T12:02:59.795Z,972.27
2018-04-24T12:04:00.486Z,972.32
2018-04-24T12:05:01.168Z,972.30
2018-04-24T12:06:01.848Z,972.33
2018-04-24T12:07:02.536Z,972.45
2018-04-24T12:08:03.243Z,972.36
2018-04-24T12:09:03.922Z,972.37
2018-04-24T12:10:04.620Z,972.31
2018-04-24T12:11:05.299Z,972.31
2018-04-24T12:12:05.979Z,972.29
2018-04-24T12:13:06.660Z,972.27
2018-04-24T12:14:07.341Z,972.28
2018-04-24T12:15:08.031Z,972.35
2018-04-24T12:16:08.713Z,972.26
2018-04-24T12:17:09.393Z,972.24
2018-04-24T12:18:10.074Z,972.28
2018-04-24T12:19:10.763Z,972.27
2018-04-24T12:20:11.444Z,972.28
2018-04-24T12:21:12.133Z,972.28
2018-04-24T12:22:12.816Z,972.25
2018-04-24T12:23:13.497Z,972.26
2018-04-24T12:24:14.191Z,972.30
2018-04-24T12:25:14.876Z,972.27
2018-04-24T12:26:15.558Z,972.26
2018-04-24T12:27:16.245Z,972.22
2018-04-24T12:28:16.939Z,972.24
2018-04-24T12:29:17.631Z,972.24
2018-04-24T12:30:18.315Z,972.20
2018-04-24T12:31:19.005Z,972.19
2018-04-24T12:32:19.685Z,972.17
2018-04-24T12:33:20.367Z,972.20
2018-04-24T12:34:21.055Z,972.18
2018-04-24T12:35:21.739Z,972.16
2018-04-24T12:36:22.420Z,972.15
2018-04-24T12:37:23.108Z,972.22